createdAt,value
2019-04-29T00:01:45.334Z,100603.02
2019-04-29T00:04:48.760Z,100602.67
2019-04-29T00:07:52.255Z,100604.36
2019-04-29T00:10:55.725Z,100600.00
2019-04-29T00:13:59.302Z,100596.36
2019-04-29T00:17:15.323Z,100599.03
2019-04-29T00:20:25.415Z,100596.01
2019-04-29T00:23:28.887Z,100596.98
2019-04-29T00:26:32.299Z,100596.59
2019-04-29T00:29:35.773Z,100594.91
2019-04-29T00:32:39.287Z,100596.98
2019-04-29T00:35:42.763Z,100601.92
2019-04-29T00:39:12.256Z,100603.76
2019-04-29T00:42:30.542Z,100603.25
2019-04-29T00:45:34.549Z,100600.23
2019-04-29T00:48:38.082Z,100600.47
2019-04-29T00:51:41.557Z,100586.16
2019-04-29T00:54:50.919Z,100590.16
2019-04-29T00:57:54.470Z,100590.67
2019-04-29T01:00:57.900Z,100588.95
2019-04-29T01:04:01.414Z,100593.45
2019-04-29T01:07:06.016Z,100599.75
2019-04-29T01:10:10.626Z,100593.33
2019-04-29T01:13:15.058Z,100592.59
2019-04-29T01:16:18.584Z,100581.58
2019-04-29T01:19:24.423Z,100582.05
2019-04-29T01:22:28.197Z,100577.58
2019-04-29T01:25:31.619Z,100575.50
2019-04-29T01:28:41.550Z,100577.70
2019-04-29T01:31:45.086Z,100578.67
2019-04-29T01:34:55.923Z,100578.67
2019-04-29T01:37:59.462Z,100581.69
2019-04-29T01:41:09.109Z,100583.38
2019-04-29T01:44:12.637Z,100577.45
2019-04-29T01:47:16.117Z,100577.57
2019-04-29T01:50:19.613Z,100566.41
2019-04-29T01:53:23.027Z,100567.16
2019-04-29T01:56:26.625Z,100564.61
2019-04-29T01:59:31.121Z,100558.56
2019-04-29T02:02:34.643Z,100558.56
2019-04-29T02:05:38.139Z,100558.92
2019-04-29T02:08:41.998Z,100564.25
2019-04-29T02:11:46.404Z,100563.12
2019-04-29T02:14:49.844Z,100561.78
2019-04-29T02:17:53.267Z,100554.77
2019-04-29T02:20:56.843Z,100550.39
2019-04-29T02:24:14.566Z,100551.25
2019-04-29T02:27:17.988Z,100545.05
2019-04-29T02:30:40.126Z,100540.35
2019-04-29T02:33:43.632Z,100534.05
2019-04-29T02:36:47.055Z,100538.04
2019-04-29T02:39:56.894Z,100534.16
2019-04-29T02:43:06.030Z,100537.69
2019-04-29T02:46:09.496Z,100538.63
2019-04-29T02:49:13.029Z,100533.69
2019-04-29T02:52:16.515Z,100529.70
2019-04-29T02:55:26.356Z,100522.65
2019-04-29T02:58:41.469Z,100519.52
2019-04-29T03:01:52.402Z,100517.59
2019-04-29T03:05:14.170Z,100512.97
2019-04-29T03:08:17.671Z,100513.20
2019-04-29T03:11:22.203Z,100513.95
2019-04-29T03:14:25.672Z,100520.37
2019-04-29T03:17:29.191Z,100511.52
2019-04-29T03:20:46.110Z,100507.52
2019-04-29T03:23:49.602Z,100507.05
2019-04-29T03:26:53.086Z,100510.66
2019-04-29T03:29:56.698Z,100507.17
2019-04-29T03:33:02.248Z,100505.21
2019-04-29T03:36:05.656Z,100492.76
2019-04-29T03:39:09.134Z,100496.52
2019-04-29T03:42:12.757Z,100496.12
2019-04-29T03:45:16.257Z,100495.89
2019-04-29T03:48:21.798Z,100492.13
2019-04-29T03:51:26.323Z,100497.96
2019-04-29T03:54:29.732Z,100494.44
2019-04-29T03:57:36.670Z,100491.42
2019-04-29T04:00:43.991Z,100489.73
2019-04-29T04:03:54.221Z,100486.33
2019-04-29T04:07:16.817Z,100490.32
2019-04-29T04:10:20.323Z,100480.77
2019-04-29T04:13:23.785Z,100482.92
2019-04-29T04:16:49.450Z,100486.56
2019-04-29T04:19:53.104Z,100481.98
2019-04-29T04:22:56.659Z,100475.91
2019-04-29T04:26:00.124Z,100477.86
2019-04-29T04:29:03.656Z,100477.12
2019-04-29T04:32:07.163Z,100477.98
2019-04-29T04:35:11.659Z,100478.80
2019-04-29T04:38:15.199Z,100467.20
2019-04-29T04:41:19.727Z,100469.12
2019-04-29T04:44:25.450Z,100468.15
2019-04-29T04:47:28.873Z,100461.26
2019-04-29T04:50:32.421Z,100453.27
2019-04-29T04:53:35.926Z,100454.72
2019-04-29T04:56:39.343Z,100454.84
2019-04-29T04:59:42.942Z,100452.17
2019-04-29T05:02:47.461Z,100452.41
2019-04-29T05:05:50.998Z,100455.45
2019-04-29T05:08:55.555Z,100455.81
2019-04-29T05:11:58.999Z,100439.95
2019-04-29T05:15:02.510Z,100434.75
2019-04-29T05:18:06.012Z,100437.77
2019-04-29T05:21:09.436Z,100438.73
2019-04-29T05:24:12.905Z,100438.03
2019-04-29T05:27:16.508Z,100435.84
2019-04-29T05:30:20.006Z,100436.70
2019-04-29T05:33:23.524Z,100438.50
2019-04-29T05:36:38.128Z,100441.05
2019-04-29T05:39:40.843Z,100444.69
2019-04-29T05:42:44.388Z,100440.42
2019-04-29T05:46:09.853Z,100429.30
2019-04-29T05:49:15.820Z,100427.97
2019-04-29T05:52:26.191Z,100430.63
2019-04-29T05:55:29.623Z,100429.66
2019-04-29T05:58:37.930Z,100426.28
2019-04-29T06:01:42.833Z,100424.56
2019-04-29T06:04:48.161Z,100422.88
2019-04-29T06:07:51.618Z,100423.47
2019-04-29T06:10:56.328Z,100428.20
2019-04-29T06:14:01.845Z,100430.75
2019-04-29T06:17:07.773Z,100421.19
2019-04-29T06:20:13.085Z,100420.45
2019-04-29T06:23:18.978Z,100429.06
2019-04-29T06:26:22.202Z,100438.85
2019-04-29T06:29:29.397Z,100438.85
2019-04-29T06:32:32.807Z,100445.98
2019-04-29T06:35:36.223Z,100448.40
2019-04-29T06:38:39.721Z,100448.05
2019-04-29T06:41:45.441Z,100441.75
2019-04-29T06:44:50.506Z,100447.07
2019-04-29T06:47:54.043Z,100452.39
2019-04-29T06:50:57.467Z,100444.41
2019-04-29T06:54:01.077Z,100429.64
2019-04-29T06:57:06.963Z,100416.56
2019-04-29T07:00:17.584Z,100415.64
2019-04-29T07:03:20.888Z,100408.48
2019-04-29T07:06:26.759Z,100409.22
2019-04-29T07:09:31.899Z,100408.24
2019-04-29T07:12:35.458Z,100417.33
2019-04-29T07:15:39.232Z,100413.69
2019-04-29T07:18:48.306Z,100407.41
2019-04-29T07:21:51.388Z,100389.72
2019-04-29T07:24:53.776Z,100378.48
2019-04-29T07:27:57.482Z,100373.51
2019-04-29T07:31:03.079Z,100364.81
2019-04-29T07:34:08.540Z,100366.50
2019-04-29T07:37:16.605Z,100366.02
2019-04-29T07:40:22.108Z,100365.16
2019-04-29T07:43:25.550Z,100377.50
2019-04-29T07:46:56.307Z,100398.80
2019-04-29T07:49:51.406Z,100421.44
2019-04-29T07:52:55.553Z,100438.75
2019-04-29T07:56:01.704Z,100438.16
2019-04-29T07:59:04.627Z,100420.84
2019-04-29T08:02:08.407Z,100402.56
2019-04-29T08:05:11.832Z,100382.59
2019-04-29T08:08:16.731Z,100373.27
2019-04-29T08:11:20.700Z,100381.26
2019-04-29T08:14:24.160Z,100380.28
2019-04-29T08:17:27.642Z,100384.66
2019-04-29T08:20:35.450Z,100377.62
2019-04-29T08:23:41.112Z,100386.34
2019-04-29T08:26:47.508Z,100375.70
2019-04-29T08:29:51.094Z,100353.41
2019-04-29T08:32:54.603Z,100332.23
2019-04-29T08:35:58.089Z,100325.09
2019-04-29T08:39:08.370Z,100319.77
2019-04-29T08:42:10.146Z,100318.09
2019-04-29T08:45:22.113Z,100317.70
2019-04-29T08:48:26.598Z,100312.76
2019-04-29T08:51:37.293Z,100314.44
2019-04-29T08:54:40.543Z,100314.67
2019-04-29T08:57:43.961Z,100313.11
2019-04-29T09:00:47.386Z,100314.80
2019-04-29T09:03:53.710Z,100316.52
2019-04-29T09:06:57.023Z,100309.34
2019-04-29T09:10:02.044Z,100310.20
2019-04-29T09:13:05.664Z,100304.25
2019-04-29T09:16:09.282Z,100310.56
2019-04-29T09:19:12.699Z,100305.97
2019-04-29T09:22:18.652Z,100296.64
2019-04-29T09:25:35.467Z,100292.27
2019-04-29T09:28:38.939Z,100304.01
2019-04-29T09:31:43.357Z,100318.19
2019-04-29T09:34:48.570Z,100350.03
2019-04-29T09:37:53.853Z,100372.45
2019-04-29T09:41:05.256Z,100383.47
2019-04-29T09:44:35.324Z,100409.52
2019-04-29T09:47:37.138Z,100410.84
2019-04-29T09:50:41.000Z,100412.17
2019-04-29T09:53:44.622Z,100406.22
2019-04-29T09:56:48.175Z,100390.98
2019-04-29T10:00:00.152Z,100376.68
2019-04-29T10:03:11.517Z,100328.02
2019-04-29T10:06:20.031Z,100311.75
2019-04-29T10:09:23.645Z,100309.51
2019-04-29T10:12:28.171Z,100308.53
2019-04-29T10:15:42.358Z,100297.11
2019-04-29T10:18:56.241Z,100283.91
2019-04-29T10:21:59.692Z,100287.45
2019-04-29T10:25:03.298Z,100269.28
2019-04-29T10:28:06.847Z,100284.91
2019-04-29T10:31:10.475Z,100287.33
2019-04-29T10:34:14.252Z,100290.09
2019-04-29T10:37:17.798Z,100297.00
2019-04-29T10:40:37.467Z,100287.20
2019-04-29T10:43:59.131Z,100281.02
2019-04-29T10:47:29.019Z,100289.11
2019-04-29T10:50:34.970Z,100292.20
2019-04-29T10:53:39.511Z,100294.86
2019-04-29T10:56:43.062Z,100289.11
2019-04-29T10:59:50.294Z,100283.31
2019-04-29T11:02:53.906Z,100290.23
2019-04-29T11:06:01.822Z,100295.56
2019-04-29T11:09:31.858Z,100299.91
2019-04-29T11:12:35.343Z,100292.55
2019-04-29T11:15:49.475Z,100281.55
2019-04-29T11:18:55.023Z,100280.91
2019-04-29T11:22:02.232Z,100275.94
2019-04-29T11:25:27.522Z,100273.91
2019-04-29T11:28:37.658Z,100288.55
2019-04-29T11:31:41.537Z,100278.88
2019-04-29T11:34:55.086Z,100274.47
2019-04-29T11:37:59.966Z,100275.45
2019-04-29T11:41:03.558Z,100262.12
2019-04-29T11:44:08.130Z,100260.45
2019-04-29T11:47:11.607Z,100263.81
2019-04-29T11:50:31.504Z,100262.73
2019-04-29T11:53:34.970Z,100268.44
2019-04-29T11:56:39.714Z,100281.13
2019-04-29T12:00:04.725Z,100282.37
2019-04-29T12:03:14.539Z,100271.80
2019-04-29T12:06:20.542Z,100269.14
2019-04-29T12:09:25.561Z,100267.11
2019-04-29T12:12:26.902Z,100259.36
2019-04-29T12:15:50.285Z,100263.46
2019-04-29T12:18:59.844Z,100250.39
2019-04-29T12:22:04.759Z,100250.74
2019-04-29T12:25:09.571Z,100258.73
2019-04-29T12:28:19.376Z,100264.32
2019-04-29T12:31:24.479Z,100259.94
2019-04-29T12:34:41.625Z,100255.82
2019-04-29T12:38:05.880Z,100265.28
2019-04-29T12:41:21.139Z,100259.47
2019-04-29T12:44:35.042Z,100258.48
2019-04-29T12:47:35.023Z,100262.00
2019-04-29T12:50:38.524Z,100257.57
2019-04-29T12:53:44.739Z,100239.48
2019-04-29T12:56:49.247Z,100237.17
2019-04-29T12:59:54.552Z,100238.16
2019-04-29T13:03:20.000Z,100240.82
2019-04-29T13:06:42.523Z,100239.02
2019-04-29T13:09:47.159Z,100238.28
2019-04-29T13:12:51.061Z,100239.96
2019-04-29T13:16:12.552Z,100232.70
2019-04-29T13:19:20.995Z,100227.16
2019-04-29T13:22:28.818Z,100226.52
2019-04-29T13:25:34.771Z,100220.63
2019-04-29T13:28:58.494Z,100217.61
2019-04-29T13:31:44.352Z,100220.28
2019-04-29T13:34:49.701Z,100220.72
2019-04-29T13:37:54.187Z,100215.52
2019-04-29T13:41:13.049Z,100208.39
2019-04-29T13:44:07.652Z,100210.55
2019-04-29T13:47:28.597Z,100207.88
2019-04-29T13:50:39.441Z,100217.20
2019-04-29T13:53:38.724Z,100223.86
2019-04-29T13:56:55.423Z,100229.19
2019-04-29T14:00:13.794Z,100221.47
2019-04-29T14:03:22.086Z,100216.28
2019-04-29T14:06:26.209Z,100209.72
2019-04-29T14:09:29.823Z,100206.32
2019-04-29T14:13:00.677Z,100209.84
2019-04-29T14:15:40.468Z,100211.17
2019-04-29T14:18:48.359Z,100210.06
2019-04-29T14:21:50.188Z,100207.88
2019-04-29T14:24:53.695Z,100210.19
2019-04-29T14:27:57.181Z,100207.77
2019-04-29T14:31:01.827Z,100205.11
2019-04-29T14:34:12.383Z,100205.11
2019-04-29T14:37:23.460Z,100205.11
2019-04-29T14:40:23.049Z,100200.52
2019-04-29T14:43:46.740Z,100196.14
2019-04-29T14:47:01.067Z,100209.84
2019-04-29T14:50:06.233Z,100201.12
2019-04-29T14:53:19.608Z,100207.17
2019-04-29T14:56:20.951Z,100201.85
2019-04-29T14:59:24.747Z,100205.47
2019-04-29T15:02:28.449Z,100191.20
2019-04-29T15:05:33.123Z,100201.47
2019-04-29T15:08:38.212Z,100207.55
2019-04-29T15:11:50.485Z,100202.92
2019-04-29T15:15:13.098Z,100205.70
2019-04-29T15:18:54.832Z,100210.09
2019-04-29T15:22:09.885Z,100220.98
2019-04-29T15:25:16.654Z,100215.66
2019-04-29T15:28:19.082Z,100223.02
2019-04-29T15:31:23.226Z,100223.17
2019-04-29T15:34:27.025Z,100223.41
2019-04-29T15:37:37.381Z,100228.10
2019-04-29T15:40:42.969Z,100230.41
2019-04-29T15:43:48.039Z,100229.55
2019-04-29T15:46:51.366Z,100230.29
2019-04-29T15:49:55.934Z,100232.09
2019-04-29T15:53:02.952Z,100236.59
2019-04-29T15:56:18.927Z,100235.27
2019-04-29T15:59:11.503Z,100235.98
2019-04-29T16:02:14.998Z,100241.06
2019-04-29T16:05:34.637Z,100241.80
2019-04-29T16:08:48.729Z,100234.81
2019-04-29T16:12:14.286Z,100240.50
2019-04-29T16:15:20.356Z,100231.92
2019-04-29T16:18:23.796Z,100238.34
2019-04-29T16:21:32.189Z,100235.30
2019-04-29T16:24:38.503Z,100237.73
2019-04-29T16:27:48.876Z,100234.36
2019-04-29T16:30:46.940Z,100233.63
2019-04-29T16:33:54.654Z,100233.63
2019-04-29T16:36:56.806Z,100234.22
2019-04-29T16:40:01.209Z,100232.89
2019-04-29T16:43:27.766Z,100237.86
2019-04-29T16:46:37.238Z,100232.19
2019-04-29T16:49:37.198Z,100229.77
2019-04-29T16:52:44.410Z,100236.53
2019-04-29T16:55:45.879Z,100230.47
2019-04-29T16:58:49.369Z,100235.45
2019-04-29T17:01:52.943Z,100231.10
2019-04-29T17:04:56.552Z,100226.38
2019-04-29T17:08:02.239Z,100228.09
2019-04-29T17:11:17.597Z,100223.83
2019-04-29T17:14:20.653Z,100224.34
2019-04-29T17:17:29.192Z,100219.84
2019-04-29T17:20:32.067Z,100225.91
2019-04-29T17:23:36.617Z,100219.84
2019-04-29T17:26:47.191Z,100227.12
2019-04-29T17:30:09.164Z,100223.59
2019-04-29T17:33:28.204Z,100220.23
2019-04-29T17:36:25.867Z,100219.84
2019-04-29T17:39:29.554Z,100224.08
2019-04-29T17:42:34.702Z,100223.37
2019-04-29T17:45:45.471Z,100227.95
2019-04-29T17:49:02.099Z,100236.44
2019-04-29T17:52:10.599Z,100231.13
2019-04-29T17:55:40.865Z,100238.72
2019-04-29T17:58:51.634Z,100235.35
2019-04-29T18:02:20.757Z,100239.34
2019-04-29T18:05:34.461Z,100239.94
2019-04-29T18:08:51.436Z,100232.93
2019-04-29T18:11:57.488Z,100235.94
2019-04-29T18:15:00.636Z,100238.25
2019-04-29T18:18:09.893Z,100241.50
2019-04-29T18:21:30.454Z,100244.05
2019-04-29T18:24:55.468Z,100244.55
2019-04-29T18:28:00.301Z,100245.26
2019-04-29T18:31:05.923Z,100248.89
2019-04-29T18:34:09.435Z,100247.80
2019-04-29T18:37:12.937Z,100253.72
2019-04-29T18:40:16.457Z,100249.37
2019-04-29T18:43:23.157Z,100252.77
2019-04-29T18:46:25.909Z,100255.91
2019-04-29T18:49:29.408Z,100254.58
2019-04-29T18:52:35.956Z,100255.05
2019-04-29T18:55:39.479Z,100255.20
2019-04-29T18:58:46.833Z,100261.70
2019-04-29T19:01:49.423Z,100266.31
2019-04-29T19:05:01.023Z,100266.44
2019-04-29T19:08:12.243Z,100267.30
2019-04-29T19:11:11.929Z,100273.09
2019-04-29T19:14:15.425Z,100267.05
2019-04-29T19:17:21.565Z,100266.93
2019-04-29T19:20:25.103Z,100266.53
2019-04-29T19:23:29.706Z,100270.05
2019-04-29T19:26:35.020Z,100272.95
2019-04-29T19:29:45.494Z,100260.27
2019-04-29T19:32:49.137Z,100264.97
2019-04-29T19:35:52.609Z,100272.71
2019-04-29T19:38:57.152Z,100274.39
2019-04-29T19:42:01.707Z,100271.14
2019-04-29T19:45:12.715Z,100275.99
2019-04-29T19:48:10.937Z,100281.20
2019-04-29T19:51:18.010Z,100275.25
2019-04-29T19:54:24.602Z,100275.75
2019-04-29T19:57:25.736Z,100280.95
2019-04-29T20:00:38.315Z,100279.34
2019-04-29T20:03:51.374Z,100277.07
2019-04-29T20:07:05.629Z,100277.42
2019-04-29T20:10:05.754Z,100286.39
2019-04-29T20:13:08.502Z,100282.75
2019-04-29T20:16:43.322Z,100280.83
2019-04-29T20:19:55.191Z,100286.00
2019-04-29T20:22:55.503Z,100285.05
2019-04-29T20:26:12.848Z,100285.75
2019-04-29T20:29:06.996Z,100286.26
2019-04-29T20:32:09.598Z,100287.59
2019-04-29T20:35:13.393Z,100295.93
2019-04-29T20:38:18.803Z,100292.29
2019-04-29T20:41:39.451Z,100294.36
2019-04-29T20:44:28.788Z,100293.38
2019-04-29T20:47:37.855Z,100301.49
2019-04-29T20:50:40.577Z,100301.61
2019-04-29T20:53:59.346Z,100295.32
2019-04-29T20:57:06.045Z,100294.62
2019-04-29T21:00:08.705Z,100293.53
2019-04-29T21:03:12.603Z,100296.19
2019-04-29T21:06:16.191Z,100294.13
2019-04-29T21:09:22.027Z,100298.11
2019-04-29T21:12:42.936Z,100296.08
2019-04-29T21:15:53.237Z,100295.34
2019-04-29T21:19:01.547Z,100295.81
2019-04-29T21:22:05.271Z,100298.48
2019-04-29T21:25:08.728Z,100296.80
2019-04-29T21:28:12.314Z,100304.07
2019-04-29T21:31:19.905Z,100308.53
2019-04-29T21:34:25.337Z,100306.34
2019-04-29T21:37:40.102Z,100306.84
2019-04-29T21:40:46.498Z,100304.31
2019-04-29T21:43:53.420Z,100296.56
2019-04-29T21:46:59.603Z,100304.42
2019-04-29T21:50:02.310Z,100303.56
2019-04-29T21:53:06.125Z,100306.85
2019-04-29T21:56:09.760Z,100303.80
2019-04-29T21:59:13.198Z,100303.80
2019-04-29T22:02:17.469Z,100302.13
2019-04-29T22:05:21.230Z,100297.89
2019-04-29T22:08:27.579Z,100297.89
2019-04-29T22:11:30.070Z,100302.36
2019-04-29T22:14:34.860Z,100307.68
2019-04-29T22:17:39.522Z,100319.30
2019-04-29T22:20:43.433Z,100312.02
2019-04-29T22:23:51.224Z,100313.98
2019-04-29T22:26:56.457Z,100320.62
2019-04-29T22:29:57.450Z,100320.39
2019-04-29T22:33:00.862Z,100325.20
2019-04-29T22:36:05.308Z,100323.17
2019-04-29T22:39:08.870Z,100323.17
2019-04-29T22:42:18.575Z,100323.05
2019-04-29T22:45:22.566Z,100329.82
2019-04-29T22:48:25.987Z,100328.10
2019-04-29T22:51:29.458Z,100333.42
2019-04-29T22:54:33.075Z,100342.94
2019-04-29T22:57:37.533Z,100336.91
2019-04-29T23:00:41.169Z,100340.66
2019-04-29T23:03:45.106Z,100339.22
2019-04-29T23:06:49.793Z,100341.41
2019-04-29T23:09:55.520Z,100338.59
2019-04-29T23:13:00.374Z,100337.27
2019-04-29T23:16:03.925Z,100340.55
2019-04-29T23:19:09.908Z,100338.83
2019-04-29T23:22:34.888Z,100331.82
2019-04-29T23:25:42.956Z,100329.91
2019-04-29T23:28:46.541Z,100335.06
2019-04-29T23:31:50.069Z,100332.80
2019-04-29T23:34:54.992Z,100335.81
2019-04-29T23:38:04.386Z,100332.05
2019-04-29T23:41:05.144Z,100339.05
2019-04-29T23:44:09.374Z,100335.06
2019-04-29T23:47:17.444Z,100332.05
2019-04-29T23:50:20.291Z,100335.57
2019-04-29T23:53:25.285Z,100333.85
2019-04-29T23:56:32.109Z,100336.52
2019-04-29T23:59:37.114Z,100336.16
